createdAt,value
2022-10-22T00:00:58.454Z,4.90
2022-10-22T00:03:24.945Z,5.18
2022-10-22T00:05:51.446Z,5.05
2022-10-22T00:08:17.967Z,4.75
2022-10-22T00:10:44.509Z,5.15
2022-10-22T00:13:11.365Z,4.72
2022-10-22T00:15:37.837Z,4.88
2022-10-22T00:18:04.377Z,5.22
2022-10-22T00:20:30.850Z,4.68
2022-10-22T00:22:57.304Z,5.53
2022-10-22T00:25:23.676Z,5.35
2022-10-22T00:27:50.061Z,6.03
2022-10-22T00:30:16.517Z,5.55
2022-10-22T00:32:43.108Z,5.35
2022-10-22T00:35:09.696Z,5.45
2022-10-22T00:37:36.126Z,5.85
2022-10-22T00:40:04.147Z,6.45
2022-10-22T00:42:30.727Z,5.72
2022-10-22T00:45:12.218Z,6.13
2022-10-22T00:47:43.690Z,5.88
2022-10-22T00:50:18.361Z,5.88
2022-10-22T00:52:44.753Z,6.13
2022-10-22T00:55:11.557Z,5.70
2022-10-22T00:57:38.013Z,6.32
2022-10-22T01:00:06.279Z,6.25
2022-10-22T01:02:33.123Z,7.00
2022-10-22T01:04:59.619Z,6.07
2022-10-22T01:07:26.303Z,6.88
2022-10-22T01:10:09.316Z,6.55
2022-10-22T01:13:14.330Z,6.13
2022-10-22T01:15:50.876Z,6.57
2022-10-22T01:18:24.213Z,6.20
2022-10-22T01:21:02.874Z,6.25
2022-10-22T01:23:32.253Z,6.30
2022-10-22T01:26:05.450Z,6.45
2022-10-22T01:28:57.280Z,6.75
2022-10-22T01:31:25.703Z,6.72
2022-10-22T01:33:53.783Z,7.22
2022-10-22T01:36:21.022Z,7.18
2022-10-22T01:38:48.168Z,8.07
2022-10-22T01:41:14.675Z,6.43
2022-10-22T01:43:41.081Z,6.93
2022-10-22T01:46:10.266Z,6.68
2022-10-22T01:49:14.923Z,6.80
2022-10-22T01:52:04.475Z,7.65
2022-10-22T01:54:33.947Z,7.82
2022-10-22T01:57:42.030Z,5.95
2022-10-22T02:00:11.161Z,7.03
2022-10-22T02:03:00.600Z,6.90
2022-10-22T02:05:34.116Z,7.45
2022-10-22T02:08:07.555Z,7.03
2022-10-22T02:10:34.135Z,7.40
2022-10-22T02:13:01.414Z,7.95
2022-10-22T02:15:29.622Z,7.60
2022-10-22T02:17:57.218Z,6.93
2022-10-22T02:20:27.932Z,8.15
2022-10-22T02:22:55.606Z,7.78
2022-10-22T02:25:23.390Z,8.23
2022-10-22T02:27:58.395Z,8.43
2022-10-22T02:30:25.204Z,7.05
2022-10-22T02:33:07.588Z,7.40
2022-10-22T02:35:35.143Z,7.30
2022-10-22T02:38:02.228Z,7.28
2022-10-22T02:40:30.757Z,7.95
2022-10-22T02:42:57.159Z,8.38
2022-10-22T02:45:23.613Z,8.27
2022-10-22T02:47:50.059Z,8.48
2022-10-22T02:50:16.801Z,9.75
2022-10-22T02:52:43.510Z,8.25
2022-10-22T02:55:10.193Z,8.60
2022-10-22T02:57:36.826Z,8.85
2022-10-22T03:00:06.052Z,8.55
2022-10-22T03:02:32.439Z,9.27
2022-10-22T03:04:58.826Z,8.70
2022-10-22T03:07:25.228Z,8.63
2022-10-22T03:09:51.667Z,8.00
2022-10-22T03:12:18.048Z,8.63
2022-10-22T03:14:44.464Z,8.52
2022-10-22T03:17:10.969Z,9.27
2022-10-22T03:19:37.690Z,9.40
2022-10-22T03:22:10.390Z,8.55
2022-10-22T03:24:42.421Z,9.05
2022-10-22T03:27:09.146Z,9.40
2022-10-22T03:29:37.640Z,8.40
2022-10-22T03:32:04.138Z,8.48
2022-10-22T03:34:30.530Z,8.55
2022-10-22T03:36:58.770Z,9.07
2022-10-22T03:39:25.316Z,8.32
2022-10-22T03:41:52.479Z,9.35
2022-10-22T03:44:19.221Z,9.43
2022-10-22T03:46:45.624Z,9.05
2022-10-22T03:49:11.981Z,8.60
2022-10-22T03:51:38.368Z,7.88
2022-10-22T03:54:05.277Z,9.05
2022-10-22T03:56:32.009Z,8.27
2022-10-22T03:58:59.992Z,9.90
2022-10-22T04:01:27.739Z,8.80
2022-10-22T04:03:54.629Z,9.25
2022-10-22T04:06:21.369Z,9.20
2022-10-22T04:08:47.810Z,9.48
2022-10-22T04:11:15.464Z,9.35
2022-10-22T04:13:42.432Z,10.18
2022-10-22T04:16:20.910Z,9.27
2022-10-22T04:18:48.638Z,9.43
2022-10-22T04:21:17.891Z,10.05
2022-10-22T04:23:50.093Z,9.75
2022-10-22T04:26:17.567Z,9.60
2022-10-22T04:28:44.577Z,11.32
2022-10-22T04:31:12.851Z,9.30
2022-10-22T04:33:39.689Z,10.60
2022-10-22T04:36:09.968Z,10.13
2022-10-22T04:38:36.366Z,11.27
2022-10-22T04:41:11.276Z,11.35
2022-10-22T04:43:37.883Z,9.13
2022-10-22T04:46:04.516Z,10.75
2022-10-22T04:48:30.889Z,9.90
2022-10-22T04:50:58.887Z,10.80
2022-10-22T04:53:25.295Z,8.43
2022-10-22T04:55:51.787Z,9.50
2022-10-22T04:58:18.312Z,9.82
2022-10-22T05:00:44.777Z,9.52
2022-10-22T05:03:11.237Z,10.07
2022-10-22T05:05:37.631Z,9.40
2022-10-22T05:08:04.126Z,11.07
2022-10-22T05:10:30.727Z,11.15
2022-10-22T05:12:57.234Z,10.25
2022-10-22T05:15:23.617Z,10.50
2022-10-22T05:17:50.213Z,10.73
2022-10-22T05:20:16.626Z,10.88
2022-10-22T05:22:43.025Z,10.25
2022-10-22T05:25:09.603Z,11.50
2022-10-22T05:27:36.036Z,10.50
2022-10-22T05:30:02.942Z,11.30
2022-10-22T05:32:29.339Z,11.25
2022-10-22T05:34:55.749Z,11.80
2022-10-22T05:37:22.117Z,11.65
2022-10-22T05:39:54.420Z,10.75
2022-10-22T05:42:31.992Z,10.73
2022-10-22T05:44:58.369Z,12.27
2022-10-22T05:47:24.975Z,11.13
2022-10-22T05:49:51.368Z,11.38
2022-10-22T05:52:17.793Z,10.77
2022-10-22T05:54:44.174Z,11.18
2022-10-22T05:57:10.559Z,9.95
2022-10-22T05:59:36.951Z,10.10
2022-10-22T06:02:03.484Z,10.40
2022-10-22T06:04:29.981Z,10.27
2022-10-22T06:06:56.431Z,11.77
2022-10-22T06:09:31.910Z,10.45
2022-10-22T06:11:58.797Z,10.40
2022-10-22T06:14:25.810Z,10.52
2022-10-22T06:16:52.641Z,9.40
2022-10-22T06:19:21.263Z,10.23
2022-10-22T06:21:48.308Z,10.48
2022-10-22T06:24:15.680Z,10.82
2022-10-22T06:26:42.146Z,12.82
2022-10-22T06:29:08.850Z,10.07
2022-10-22T06:31:38.168Z,11.13
2022-10-22T06:34:06.698Z,10.27
2022-10-22T06:36:33.141Z,10.35
2022-10-22T06:38:59.577Z,11.20
2022-10-22T06:41:29.494Z,11.38
2022-10-22T06:43:57.302Z,10.73
2022-10-22T06:46:24.891Z,10.02
2022-10-22T06:48:56.419Z,9.90
2022-10-22T06:51:23.225Z,10.73
2022-10-22T06:53:50.230Z,11.48
2022-10-22T06:56:20.164Z,9.52
2022-10-22T06:58:50.746Z,9.98
2022-10-22T07:01:19.534Z,9.55
2022-10-22T07:03:46.176Z,9.88
2022-10-22T07:06:14.415Z,9.57
2022-10-22T07:08:41.931Z,8.45
2022-10-22T07:11:13.564Z,9.10
2022-10-22T07:13:40.528Z,8.68
2022-10-22T07:16:07.869Z,8.48
2022-10-22T07:18:34.929Z,9.07
2022-10-22T07:21:02.062Z,8.68
2022-10-22T07:23:29.302Z,7.20
2022-10-22T07:28:23.355Z,7.60
2022-10-22T07:30:49.816Z,7.90
2022-10-22T07:33:16.260Z,7.25
2022-10-22T07:35:43.066Z,6.80
2022-10-22T07:38:09.522Z,8.32
2022-10-22T07:40:36.263Z,5.72
2022-10-22T07:43:02.845Z,6.10
2022-10-22T07:45:29.241Z,5.93
2022-10-22T07:47:55.701Z,5.60
2022-10-22T07:50:22.207Z,6.40
2022-10-22T07:52:48.637Z,6.32
2022-10-22T07:55:15.236Z,5.50
2022-10-22T07:57:41.616Z,6.18
2022-10-22T08:00:09.484Z,4.88
2022-10-22T08:02:36.110Z,4.55
2022-10-22T08:05:02.480Z,4.10
2022-10-22T08:07:28.907Z,4.00
2022-10-22T08:09:55.377Z,4.50
2022-10-22T08:12:21.769Z,4.20
2022-10-22T08:14:48.335Z,5.00
2022-10-22T08:17:15.052Z,4.25
2022-10-22T08:19:41.438Z,4.57
2022-10-22T08:22:08.103Z,3.97
2022-10-22T08:24:34.566Z,4.70
2022-10-22T08:27:01.293Z,4.32
2022-10-22T08:29:27.832Z,4.88
2022-10-22T08:31:54.321Z,4.28
2022-10-22T08:34:20.863Z,5.25
2022-10-22T08:36:47.330Z,3.97
2022-10-22T08:39:13.998Z,4.80
2022-10-22T08:41:52.542Z,4.30
2022-10-22T08:44:37.230Z,4.45
2022-10-22T08:47:25.546Z,3.67
2022-10-22T08:49:53.503Z,4.82
2022-10-22T08:52:20.109Z,4.47
2022-10-22T08:54:52.403Z,4.97
2022-10-22T08:57:40.446Z,4.00
2022-10-22T09:00:17.913Z,3.30
2022-10-22T09:03:02.744Z,5.05
2022-10-22T09:05:35.251Z,3.72
2022-10-22T09:08:02.021Z,3.35
2022-10-22T09:10:33.230Z,3.60
2022-10-22T09:12:59.684Z,3.65
2022-10-22T09:15:26.923Z,3.50
2022-10-22T09:18:03.035Z,3.42
2022-10-22T09:20:35.282Z,3.03
2022-10-22T09:23:16.979Z,3.05
2022-10-22T09:25:44.849Z,3.42
2022-10-22T09:28:11.661Z,3.75
2022-10-22T09:30:39.129Z,4.57
2022-10-22T09:33:14.598Z,3.30
2022-10-22T09:35:44.046Z,4.25
2022-10-22T09:38:13.651Z,4.10
2022-10-22T09:40:49.741Z,3.83
2022-10-22T09:43:16.698Z,3.45
2022-10-22T09:45:43.755Z,4.45
2022-10-22T09:48:30.424Z,3.50
2022-10-22T09:51:18.770Z,3.20
2022-10-22T09:53:48.327Z,3.80
2022-10-22T09:56:24.479Z,5.13
2022-10-22T09:58:51.789Z,4.38
2022-10-22T10:01:22.235Z,3.78
2022-10-22T10:03:50.171Z,3.60
2022-10-22T10:06:21.394Z,3.50
2022-10-22T10:08:48.520Z,3.50
2022-10-22T10:11:29.120Z,3.25
2022-10-22T10:14:02.121Z,3.10
2022-10-22T10:16:42.502Z,3.85
2022-10-22T10:19:21.850Z,3.72
2022-10-22T10:22:08.145Z,3.85
2022-10-22T10:24:52.383Z,4.00
2022-10-22T10:27:40.952Z,3.10
2022-10-22T10:30:21.599Z,3.63
2022-10-22T10:33:15.999Z,2.75
2022-10-22T10:36:07.540Z,3.70
2022-10-22T10:38:51.893Z,4.07
2022-10-22T10:41:31.881Z,3.53
2022-10-22T10:44:33.952Z,3.25
2022-10-22T10:47:06.622Z,3.50
2022-10-22T10:49:35.047Z,3.00
2022-10-22T10:52:01.347Z,3.22
2022-10-22T10:54:27.913Z,3.67
2022-10-22T10:57:04.570Z,3.22
2022-10-22T10:59:54.573Z,2.65
2022-10-22T11:02:52.075Z,2.65
2022-10-22T11:05:38.476Z,3.88
2022-10-22T11:08:16.285Z,2.70
2022-10-22T11:10:48.999Z,2.78
2022-10-22T11:13:30.467Z,3.20
2022-10-22T11:16:20.170Z,2.95
2022-10-22T11:18:49.515Z,2.95
2022-10-22T11:21:23.975Z,2.40
2022-10-22T11:23:53.831Z,2.50
2022-10-22T11:26:45.524Z,2.53
2022-10-22T11:29:17.385Z,2.33
2022-10-22T11:31:44.444Z,2.75
2022-10-22T11:34:33.138Z,2.75
2022-10-22T11:37:01.364Z,2.60
2022-10-22T11:39:39.288Z,2.80
2022-10-22T11:42:11.684Z,3.05
2022-10-22T11:45:27.878Z,2.20
2022-10-22T11:48:09.548Z,2.55
2022-10-22T11:50:56.650Z,2.88
2022-10-22T11:53:26.022Z,2.45
2022-10-22T11:55:55.338Z,2.92
2022-10-22T11:58:30.594Z,4.05
2022-10-22T12:01:03.116Z,3.40
2022-10-22T12:03:32.193Z,3.45
2022-10-22T12:06:04.822Z,3.55
2022-10-22T12:08:32.769Z,3.00
2022-10-22T12:11:11.362Z,2.40
2022-10-22T12:13:50.182Z,3.40
2022-10-22T12:16:23.596Z,3.10
2022-10-22T12:19:05.577Z,13.82
2022-10-22T12:21:33.640Z,2.53
2022-10-22T12:24:00.991Z,2.40
2022-10-22T12:29:01.077Z,2.90
2022-10-22T12:31:28.662Z,3.30
2022-10-22T12:33:59.244Z,4.28
2022-10-22T12:36:27.279Z,3.40
2022-10-22T12:38:53.671Z,2.30
2022-10-22T12:41:21.679Z,3.08
2022-10-22T12:43:48.102Z,2.45
2022-10-22T12:46:16.354Z,2.67
2022-10-22T12:48:44.426Z,2.50
2022-10-22T12:51:19.418Z,2.40
2022-10-22T12:53:50.948Z,2.45
2022-10-22T12:56:25.815Z,2.90
2022-10-22T12:59:00.876Z,3.70
2022-10-22T13:01:31.363Z,2.50
2022-10-22T13:04:13.706Z,3.35
2022-10-22T13:06:44.607Z,2.58
2022-10-22T13:11:58.058Z,2.97
2022-10-22T13:14:32.685Z,3.47
2022-10-22T13:17:18.044Z,3.08
2022-10-22T13:20:02.001Z,2.53
2022-10-22T13:22:34.564Z,2.60
2022-10-22T13:25:13.033Z,2.33
2022-10-22T13:27:52.714Z,3.25
2022-10-22T13:30:32.384Z,2.95
2022-10-22T13:33:01.166Z,2.60
2022-10-22T13:35:38.094Z,2.58
2022-10-22T13:38:14.870Z,2.30
2022-10-22T13:40:41.281Z,2.65
2022-10-22T13:43:07.643Z,3.67
2022-10-22T13:45:34.030Z,2.40
2022-10-22T13:48:00.429Z,3.10
2022-10-22T13:50:26.819Z,3.10
2022-10-22T13:52:55.532Z,2.78
2022-10-22T13:55:27.395Z,3.22
2022-10-22T13:57:59.846Z,4.18
2022-10-22T14:00:26.635Z,2.35
2022-10-22T14:02:54.734Z,3.13
2022-10-22T14:05:21.689Z,2.60
2022-10-22T14:07:48.563Z,2.85
2022-10-22T14:10:15.069Z,3.08
2022-10-22T14:12:42.267Z,2.47
2022-10-22T14:15:11.409Z,2.75
2022-10-22T14:17:38.746Z,3.03
2022-10-22T14:20:05.737Z,3.50
2022-10-22T14:22:32.226Z,2.63
2022-10-22T14:24:58.596Z,2.95
2022-10-22T14:27:25.063Z,2.72
2022-10-22T14:29:54.013Z,2.45
2022-10-22T14:32:23.741Z,2.10
2022-10-22T14:34:50.584Z,2.67
2022-10-22T14:37:19.346Z,3.42
2022-10-22T14:39:51.832Z,2.92
2022-10-22T14:42:19.709Z,3.45
2022-10-22T14:44:46.443Z,3.63
2022-10-22T14:47:12.981Z,3.70
2022-10-22T14:49:39.471Z,3.83
2022-10-22T14:52:05.874Z,5.03
2022-10-22T14:54:33.178Z,3.75
2022-10-22T14:56:59.550Z,3.28
2022-10-22T14:59:25.944Z,3.10
2022-10-22T15:01:52.407Z,4.53
2022-10-22T15:04:18.928Z,3.53
2022-10-22T15:06:45.355Z,3.38
2022-10-22T15:09:11.824Z,3.50
2022-10-22T15:11:38.233Z,3.67
2022-10-22T15:14:04.682Z,3.38
2022-10-22T15:16:31.129Z,3.35
2022-10-22T15:18:57.559Z,3.47
2022-10-22T15:21:23.937Z,3.22
2022-10-22T15:23:50.433Z,3.30
2022-10-22T15:26:17.444Z,3.75
2022-10-22T15:28:44.282Z,3.10
2022-10-22T15:31:13.868Z,3.25
2022-10-22T15:33:40.996Z,3.08
2022-10-22T15:36:16.135Z,3.75
2022-10-22T15:38:42.521Z,3.53
2022-10-22T15:41:11.865Z,4.00
2022-10-22T15:43:38.451Z,4.20
2022-10-22T15:46:16.117Z,3.60
2022-10-22T15:48:42.793Z,3.50
2022-10-22T15:51:14.453Z,3.65
2022-10-22T15:53:41.333Z,4.40
2022-10-22T15:56:08.133Z,3.53
2022-10-22T15:58:34.609Z,3.47
2022-10-22T16:01:08.920Z,2.88
2022-10-22T16:03:35.907Z,4.40
2022-10-22T16:06:03.061Z,3.45
2022-10-22T16:08:29.930Z,3.70
2022-10-22T16:10:56.751Z,3.20
2022-10-22T16:13:24.597Z,3.95
2022-10-22T16:15:51.261Z,3.67
2022-10-22T16:18:18.601Z,3.75
2022-10-22T16:20:45.208Z,4.03
2022-10-22T16:23:11.730Z,4.32
2022-10-22T16:25:42.081Z,3.78
2022-10-22T16:28:09.554Z,4.38
2022-10-22T16:30:37.150Z,4.07
2022-10-22T16:33:05.113Z,4.43
2022-10-22T16:35:31.998Z,5.15
2022-10-22T16:37:58.596Z,4.68
2022-10-22T16:40:26.591Z,5.28
2022-10-22T16:42:53.292Z,5.03
2022-10-22T16:45:19.681Z,5.97
2022-10-22T16:47:46.943Z,7.65
2022-10-22T16:50:20.271Z,7.82
2022-10-22T16:52:46.668Z,6.63
2022-10-22T16:55:13.064Z,6.47
2022-10-22T16:57:39.711Z,6.13
2022-10-22T17:00:07.314Z,6.70
2022-10-22T17:02:35.195Z,8.75
2022-10-22T17:05:01.571Z,7.47
2022-10-22T17:07:27.930Z,8.63
2022-10-22T17:09:54.346Z,9.70
2022-10-22T17:12:20.996Z,14.70
2022-10-22T17:14:47.347Z,14.85
2022-10-22T17:17:13.922Z,13.98
2022-10-22T17:19:40.335Z,13.80
2022-10-22T17:22:08.989Z,12.77
2022-10-22T17:24:36.095Z,12.77
2022-10-22T17:29:36.268Z,13.10
2022-10-22T17:32:02.990Z,12.77
2022-10-22T17:34:32.989Z,12.20
2022-10-22T17:37:00.170Z,13.90
2022-10-22T17:39:26.872Z,13.10
2022-10-22T17:41:53.367Z,11.80
2022-10-22T17:44:19.777Z,11.77
2022-10-22T17:46:46.329Z,12.90
2022-10-22T17:49:17.159Z,13.85
2022-10-22T17:51:43.794Z,18.98
2022-10-22T17:54:10.488Z,19.10
2022-10-22T17:56:38.732Z,19.50
2022-10-22T17:59:05.111Z,16.33
2022-10-22T18:01:34.360Z,18.88
2022-10-22T18:04:04.460Z,19.40
2022-10-22T18:06:31.514Z,17.03
2022-10-22T18:08:58.330Z,14.07
2022-10-22T18:11:27.122Z,14.07
2022-10-22T18:13:55.663Z,11.90
2022-10-22T18:16:22.456Z,13.75
2022-10-22T18:18:55.166Z,11.85
2022-10-22T18:21:22.985Z,13.35
2022-10-22T18:23:49.668Z,11.93
2022-10-22T18:26:18.463Z,12.15
2022-10-22T18:28:48.849Z,12.48
2022-10-22T18:31:23.367Z,13.95
2022-10-22T18:33:50.316Z,13.10
2022-10-22T18:36:19.755Z,14.02
2022-10-22T18:38:50.764Z,14.95
2022-10-22T18:43:43.523Z,15.35
2022-10-22T18:46:10.317Z,16.75
2022-10-22T18:48:36.914Z,17.45
2022-10-22T18:51:09.148Z,16.02
2022-10-22T18:53:37.547Z,18.95
2022-10-22T18:56:08.603Z,15.75
2022-10-22T19:01:09.841Z,15.45
2022-10-22T19:03:36.574Z,13.10
2022-10-22T19:06:03.101Z,14.23
2022-10-22T19:08:29.501Z,14.75
2022-10-22T19:10:56.035Z,14.10
2022-10-22T19:13:25.355Z,15.15
2022-10-22T19:15:52.419Z,14.38
2022-10-22T19:18:19.984Z,13.45
2022-10-22T19:20:47.963Z,13.50
2022-10-22T19:23:18.487Z,15.57
2022-10-22T19:25:47.072Z,16.38
2022-10-22T19:28:13.459Z,16.02
2022-10-22T19:30:40.869Z,15.68
2022-10-22T19:33:07.593Z,17.58
2022-10-22T19:35:36.501Z,18.33
2022-10-22T19:38:02.914Z,18.08
2022-10-22T19:40:29.335Z,19.05
2022-10-22T19:42:55.768Z,18.27
2022-10-22T19:45:22.198Z,17.73
2022-10-22T19:47:48.639Z,16.92
2022-10-22T19:50:15.100Z,16.13
2022-10-22T19:52:41.649Z,15.25
2022-10-22T19:55:09.958Z,17.25
2022-10-22T19:57:37.621Z,16.15
2022-10-22T20:00:05.932Z,15.50
2022-10-22T20:02:32.425Z,17.02
2022-10-22T20:04:58.834Z,19.23
2022-10-22T20:07:25.224Z,18.23
2022-10-22T20:09:51.614Z,19.10
2022-10-22T20:12:17.975Z,16.42
2022-10-22T20:14:44.355Z,17.02
2022-10-22T20:17:10.738Z,16.23
2022-10-22T20:19:37.164Z,17.55
2022-10-22T20:22:03.663Z,19.65
2022-10-22T20:24:30.100Z,18.88
2022-10-22T20:26:56.516Z,19.45
2022-10-22T20:29:22.935Z,20.83
2022-10-22T20:31:49.322Z,18.48
2022-10-22T20:34:15.836Z,16.70
2022-10-22T20:36:42.484Z,16.48
2022-10-22T20:39:13.268Z,14.63
2022-10-22T20:41:40.526Z,14.55
2022-10-22T20:44:11.449Z,14.43
2022-10-22T20:46:37.824Z,15.25
2022-10-22T20:49:06.316Z,16.10
2022-10-22T20:51:33.029Z,17.77
2022-10-22T20:53:59.487Z,15.43
2022-10-22T20:56:26.755Z,14.80
2022-10-22T20:59:03.952Z,14.02
2022-10-22T21:01:36.886Z,13.18
2022-10-22T21:04:03.997Z,12.88
2022-10-22T21:06:30.466Z,12.00
2022-10-22T21:08:56.882Z,12.93
2022-10-22T21:11:23.396Z,12.00
2022-10-22T21:13:52.352Z,12.25
2022-10-22T21:16:19.607Z,12.32
2022-10-22T21:18:46.853Z,12.90
2022-10-22T21:21:13.521Z,13.13
2022-10-22T21:23:40.220Z,12.13
2022-10-22T21:26:06.892Z,11.38
2022-10-22T21:28:35.537Z,10.50
2022-10-22T21:31:07.543Z,12.30
2022-10-22T21:33:41.343Z,11.00
2022-10-22T21:36:09.075Z,11.32
2022-10-22T21:38:36.181Z,11.88
2022-10-22T21:41:07.165Z,11.10
2022-10-22T21:46:08.484Z,9.98
2022-10-22T21:48:35.989Z,10.05
2022-10-22T21:51:08.129Z,11.35
2022-10-22T21:53:34.844Z,10.50
2022-10-22T21:56:01.307Z,10.13
2022-10-22T21:58:27.688Z,10.55
2022-10-22T22:00:55.682Z,10.38
2022-10-22T22:03:22.654Z,10.13
2022-10-22T22:05:51.491Z,9.65
2022-10-22T22:08:18.963Z,9.70
2022-10-22T22:10:45.415Z,11.80
2022-10-22T22:13:11.858Z,9.20
2022-10-22T22:15:38.299Z,10.35
2022-10-22T22:18:04.863Z,9.75
2022-10-22T22:20:31.353Z,9.23
2022-10-22T22:22:57.771Z,9.30
2022-10-22T22:25:24.186Z,10.25
2022-10-22T22:27:50.582Z,9.45
2022-10-22T22:30:17.843Z,10.70
2022-10-22T22:32:44.247Z,9.90
2022-10-22T22:35:10.651Z,9.52
2022-10-22T22:37:37.007Z,12.52
2022-10-22T22:40:03.571Z,10.70
2022-10-22T22:42:29.951Z,9.82
2022-10-22T22:44:56.331Z,10.05
2022-10-22T22:47:22.756Z,10.65
2022-10-22T22:49:49.157Z,11.82
2022-10-22T22:52:15.567Z,10.48
2022-10-22T22:54:41.980Z,10.70
2022-10-22T22:57:08.342Z,10.13
2022-10-22T22:59:34.843Z,10.63
2022-10-22T23:02:01.323Z,10.45
2022-10-22T23:04:30.194Z,10.30
2022-10-22T23:06:56.600Z,10.30
2022-10-22T23:09:23.040Z,10.32
2022-10-22T23:11:50.261Z,10.40
2022-10-22T23:14:18.246Z,10.80
2022-10-22T23:16:50.229Z,10.27
2022-10-22T23:19:19.441Z,10.27
2022-10-22T23:21:48.395Z,9.93
2022-10-22T23:24:16.926Z,10.00
2022-10-22T23:26:46.046Z,10.45
2022-10-22T23:29:16.776Z,9.88
2022-10-22T23:31:43.705Z,9.52
2022-10-22T23:34:11.738Z,10.13
2022-10-22T23:36:38.807Z,9.73
2022-10-22T23:39:06.897Z,10.30
2022-10-22T23:41:33.531Z,10.45
2022-10-22T23:44:00.144Z,11.82
2022-10-22T23:46:26.606Z,10.38
2022-10-22T23:48:53.742Z,10.05
2022-10-22T23:51:21.096Z,10.02
2022-10-22T23:53:53.137Z,9.43
2022-10-22T23:56:19.595Z,9.27
2022-10-22T23:58:51.348Z,9.02
